Saint Bonifacius, Minnesota
Current Conditions -  °F | °C
As of 9:23 PM on Monday 22 Dec 2014 (Local Time) from KFCM Reporting Station
Haze Haze  
Wind Chill: 30°   Ceiling: 1000
Heat Index: 37°   Visibility: 4mi
Dew Point: 34°   Wind: 9mph
Humidity: 89%   Direction: 70°ENE
Pressure: 29.59"   Gusts: NA
Location:  44.91°N, 93.75°W
Report Text: KFCM 230323Z AUTO 07008KT 4SM BR OVC010 03/01 A2959 RMK AO2 RAE01 CIG 008V012 P0000 T00280011
Loading
Personal Weather Stations






























Interactive Weather Map New forecast layout! Learn more

10-Day Weather Forecast

Advertisements
Track Severe Weather on mobile